createdAt,value
2023-05-13T00:00:44.158Z,22.92
2023-05-13T00:01:44.222Z,22.93
2023-05-13T00:02:44.380Z,22.94
2023-05-13T00:03:44.437Z,22.95
2023-05-13T00:04:44.413Z,22.95
2023-05-13T00:05:44.551Z,22.96
2023-05-13T00:06:44.547Z,22.96
2023-05-13T00:07:44.621Z,22.96
2023-05-13T00:08:44.682Z,22.96
2023-05-13T00:09:44.765Z,22.96
2023-05-13T00:10:44.844Z,22.96
2023-05-13T00:11:44.898Z,22.96
2023-05-13T00:12:44.952Z,22.97
2023-05-13T00:13:45.018Z,22.96
2023-05-13T00:14:45.100Z,22.97
2023-05-13T00:15:45.157Z,22.96
2023-05-13T00:16:45.291Z,22.96
2023-05-13T00:17:45.338Z,22.96
2023-05-13T00:18:45.404Z,22.96
2023-05-13T00:19:45.432Z,22.96
2023-05-13T00:20:45.468Z,22.96
2023-05-13T00:21:45.529Z,22.96
2023-05-13T00:22:45.598Z,22.96
2023-05-13T00:23:45.664Z,22.96
2023-05-13T00:24:45.721Z,22.95
2023-05-13T00:25:45.790Z,22.96
2023-05-13T00:26:45.867Z,22.95
2023-05-13T00:27:45.886Z,22.95
2023-05-13T00:28:45.952Z,22.95
2023-05-13T00:29:46.020Z,22.96
2023-05-13T00:30:46.077Z,22.95
2023-05-13T00:31:46.189Z,22.95
2023-05-13T00:32:46.260Z,22.95
2023-05-13T00:33:46.224Z,22.94
2023-05-13T00:34:46.239Z,22.95
2023-05-13T00:35:46.301Z,22.95
2023-05-13T00:36:46.359Z,22.95
2023-05-13T00:37:46.409Z,22.95
2023-05-13T00:38:46.461Z,22.94
2023-05-13T00:39:46.504Z,22.95
2023-05-13T00:40:46.581Z,22.95
2023-05-13T00:41:46.621Z,22.95
2023-05-13T00:42:46.731Z,22.95
2023-05-13T00:43:46.725Z,22.94
2023-05-13T00:44:46.768Z,22.94
2023-05-13T00:45:46.868Z,22.94
2023-05-13T00:46:46.899Z,22.94
2023-05-13T00:47:46.988Z,22.94
2023-05-13T00:48:46.981Z,22.94
2023-05-13T00:49:47.010Z,22.94
2023-05-13T00:50:47.033Z,22.94
2023-05-13T00:51:47.084Z,22.93
2023-05-13T00:52:47.131Z,22.93
2023-05-13T00:53:47.197Z,22.94
2023-05-13T00:54:47.230Z,22.93
2023-05-13T00:55:47.271Z,22.93
2023-05-13T00:56:47.328Z,22.94
2023-05-13T00:57:47.375Z,22.93
2023-05-13T00:58:47.417Z,22.92
2023-05-13T00:59:47.398Z,22.93
2023-05-13T01:00:47.466Z,22.92
2023-05-13T01:01:47.470Z,22.93
2023-05-13T01:02:47.553Z,22.93
2023-05-13T01:03:47.548Z,22.92
2023-05-13T01:04:47.607Z,22.93
2023-05-13T01:05:47.635Z,22.92
2023-05-13T01:06:47.681Z,22.93
2023-05-13T01:07:47.740Z,22.92
2023-05-13T01:08:47.739Z,22.92
2023-05-13T01:09:47.768Z,22.92
2023-05-13T01:10:47.839Z,22.93
2023-05-13T01:11:47.879Z,22.93
2023-05-13T01:12:47.912Z,22.92
2023-05-13T01:13:47.945Z,22.92
2023-05-13T01:14:48.019Z,22.92
2023-05-13T01:15:48.044Z,22.92
2023-05-13T01:16:48.187Z,22.92
2023-05-13T01:17:48.314Z,22.91
2023-05-13T01:18:48.550Z,22.91
2023-05-13T01:19:48.270Z,22.92
2023-05-13T01:20:48.306Z,22.92
2023-05-13T01:21:48.357Z,22.92
2023-05-13T01:22:48.386Z,22.91
2023-05-13T01:23:48.399Z,22.91
2023-05-13T01:24:48.417Z,22.91
2023-05-13T01:25:48.421Z,22.91
2023-05-13T01:26:48.423Z,22.92
2023-05-13T01:27:48.432Z,22.91
2023-05-13T01:28:48.481Z,22.91
2023-05-13T01:29:48.518Z,22.91
2023-05-13T01:30:48.577Z,22.91
2023-05-13T01:31:48.561Z,22.92
2023-05-13T01:32:48.659Z,22.90
2023-05-13T01:33:48.672Z,22.92
2023-05-13T01:34:48.637Z,22.91
2023-05-13T01:35:48.654Z,22.90
2023-05-13T01:36:48.675Z,22.91
2023-05-13T01:37:48.840Z,22.90
2023-05-13T01:38:48.736Z,22.90
2023-05-13T01:39:48.765Z,22.90
2023-05-13T01:40:48.816Z,22.90
2023-05-13T01:41:48.860Z,22.90
2023-05-13T01:42:48.892Z,22.91
2023-05-13T01:43:48.927Z,22.90
2023-05-13T01:44:48.990Z,22.90
2023-05-13T01:45:49.041Z,22.90
2023-05-13T01:46:49.355Z,22.90
2023-05-13T01:47:49.230Z,22.90
2023-05-13T01:48:49.177Z,22.89
2023-05-13T01:49:49.215Z,22.90
2023-05-13T01:50:49.259Z,22.90
2023-05-13T01:51:49.301Z,22.90
2023-05-13T01:52:49.359Z,22.89
2023-05-13T01:53:49.407Z,22.90
2023-05-13T01:54:49.445Z,22.89
2023-05-13T01:55:49.483Z,22.89
2023-05-13T01:56:49.531Z,22.90
2023-05-13T01:57:49.623Z,22.88
2023-05-13T01:58:49.646Z,22.89
2023-05-13T01:59:49.680Z,22.89
2023-05-13T02:00:49.943Z,22.89
2023-05-13T02:01:49.795Z,22.89
2023-05-13T02:02:49.990Z,22.89
2023-05-13T02:03:49.873Z,22.89
2023-05-13T02:04:49.909Z,22.89
2023-05-13T02:05:49.950Z,22.88
2023-05-13T02:06:49.985Z,22.89
2023-05-13T02:07:50.035Z,22.89
2023-05-13T02:08:50.069Z,22.89
2023-05-13T02:09:50.111Z,22.88
2023-05-13T02:10:50.156Z,22.89
2023-05-13T02:11:50.203Z,22.89
2023-05-13T02:12:50.243Z,22.88
2023-05-13T02:13:50.284Z,22.88
2023-05-13T02:14:50.330Z,22.88
2023-05-13T02:15:50.377Z,22.88
2023-05-13T02:16:50.777Z,22.88
2023-05-13T02:17:50.522Z,22.88
2023-05-13T02:18:50.586Z,22.89
2023-05-13T02:19:50.575Z,22.88
2023-05-13T02:20:50.633Z,22.88
2023-05-13T02:21:50.683Z,22.88
2023-05-13T02:22:50.732Z,22.88
2023-05-13T02:23:50.792Z,22.88
2023-05-13T02:24:50.831Z,22.88
2023-05-13T02:25:50.886Z,22.88
2023-05-13T02:26:50.938Z,22.88
2023-05-13T02:27:50.972Z,22.88
2023-05-13T02:28:51.036Z,22.88
2023-05-13T02:29:51.087Z,22.88
2023-05-13T02:30:51.121Z,22.87
2023-05-13T02:31:51.249Z,22.88
2023-05-13T02:32:51.235Z,22.87
2023-05-13T02:33:51.275Z,22.87
2023-05-13T02:34:51.340Z,22.87
2023-05-13T02:35:51.371Z,22.87
2023-05-13T02:36:51.425Z,22.88
2023-05-13T02:37:51.464Z,22.87
2023-05-13T02:38:51.546Z,22.87
2023-05-13T02:39:51.570Z,22.87
2023-05-13T02:40:51.619Z,22.87
2023-05-13T02:41:51.679Z,22.87
2023-05-13T02:42:51.740Z,22.86
2023-05-13T02:43:51.765Z,22.87
2023-05-13T02:44:51.818Z,22.87
2023-05-13T02:45:51.882Z,22.87
2023-05-13T02:46:51.916Z,22.87
2023-05-13T02:47:52.043Z,22.87
2023-05-13T02:48:52.005Z,22.87
2023-05-13T02:49:52.059Z,22.87
2023-05-13T02:50:52.126Z,22.86
2023-05-13T02:51:52.146Z,22.87
2023-05-13T02:52:52.228Z,22.87
2023-05-13T02:53:52.262Z,22.87
2023-05-13T02:54:52.303Z,22.87
2023-05-13T02:55:52.382Z,22.86
2023-05-13T02:56:52.409Z,22.86
2023-05-13T02:57:52.458Z,22.86
2023-05-13T02:58:52.503Z,22.86
2023-05-13T02:59:52.557Z,22.86
2023-05-13T03:00:52.611Z,22.86
2023-05-13T03:01:52.766Z,22.86
2023-05-13T03:02:52.851Z,22.86
2023-05-13T03:03:52.766Z,22.86
2023-05-13T03:04:52.824Z,22.86
2023-05-13T03:05:52.883Z,22.86
2023-05-13T03:06:52.981Z,22.86
2023-05-13T03:07:53.001Z,22.86
2023-05-13T03:08:53.058Z,22.86
2023-05-13T03:09:53.102Z,22.86
2023-05-13T03:10:53.172Z,22.86
2023-05-13T03:11:53.171Z,22.85
2023-05-13T03:12:53.189Z,22.86
2023-05-13T03:13:53.189Z,22.86
2023-05-13T03:14:53.187Z,22.86
2023-05-13T03:15:53.239Z,22.85
2023-05-13T03:16:53.179Z,22.85
2023-05-13T03:17:53.223Z,22.85
2023-05-13T03:18:53.276Z,22.86
2023-05-13T03:19:53.185Z,22.85
2023-05-13T03:20:53.197Z,22.85
2023-05-13T03:21:53.187Z,22.86
2023-05-13T03:22:53.243Z,22.85
2023-05-13T03:23:53.278Z,22.85
2023-05-13T03:24:53.325Z,22.86
2023-05-13T03:25:53.378Z,22.85
2023-05-13T03:26:53.429Z,22.85
2023-05-13T03:27:53.493Z,22.85
2023-05-13T03:28:53.541Z,22.85
2023-05-13T03:29:53.600Z,22.85
2023-05-13T03:30:53.679Z,22.85
2023-05-13T03:31:53.759Z,22.85
2023-05-13T03:32:53.795Z,22.85
2023-05-13T03:33:53.812Z,22.85
2023-05-13T03:34:53.858Z,22.85
2023-05-13T03:35:53.923Z,22.86
2023-05-13T03:36:53.959Z,22.84
2023-05-13T03:37:54.026Z,22.85
2023-05-13T03:38:54.180Z,22.85
2023-05-13T03:39:54.132Z,22.85
2023-05-13T03:40:54.180Z,22.84
2023-05-13T03:41:54.237Z,22.85
2023-05-13T03:42:54.294Z,22.85
2023-05-13T03:43:54.342Z,22.85
2023-05-13T03:44:54.404Z,22.85
2023-05-13T03:45:54.460Z,22.85
2023-05-13T03:46:54.639Z,22.85
2023-05-13T03:47:54.759Z,22.85
2023-05-13T03:48:54.606Z,22.84
2023-05-13T03:49:54.666Z,22.84
2023-05-13T03:50:54.708Z,22.84
2023-05-13T03:51:54.772Z,22.85
2023-05-13T03:52:54.858Z,22.84
2023-05-13T03:53:54.879Z,22.84
2023-05-13T03:54:54.953Z,22.84
2023-05-13T03:55:55.006Z,22.84
2023-05-13T03:56:55.036Z,22.84
2023-05-13T03:57:55.105Z,22.85
2023-05-13T03:58:55.147Z,22.84
2023-05-13T03:59:55.201Z,22.84
2023-05-13T04:00:55.267Z,22.84
2023-05-13T04:01:55.317Z,22.84
2023-05-13T04:02:55.536Z,22.84
2023-05-13T04:03:55.295Z,22.83
2023-05-13T04:04:55.389Z,22.83
2023-05-13T04:05:55.287Z,22.84
2023-05-13T04:06:55.287Z,22.84
2023-05-13T04:07:55.308Z,22.84
2023-05-13T04:08:55.316Z,22.83
2023-05-13T04:09:55.346Z,22.83
2023-05-13T04:10:55.401Z,22.84
2023-05-13T04:11:55.412Z,22.83
2023-05-13T04:12:55.453Z,22.83
2023-05-13T04:13:55.462Z,22.83
2023-05-13T04:14:55.478Z,22.83
2023-05-13T04:15:55.462Z,22.83
2023-05-13T04:16:55.549Z,22.83
2023-05-13T04:17:55.567Z,22.83
2023-05-13T04:18:55.540Z,22.83
2023-05-13T04:19:55.490Z,22.83
2023-05-13T04:20:55.494Z,22.84
2023-05-13T04:21:55.499Z,22.83
2023-05-13T04:22:55.507Z,22.82
2023-05-13T04:23:55.498Z,22.83
2023-05-13T04:24:55.507Z,22.83
2023-05-13T04:25:55.559Z,22.82
2023-05-13T04:26:55.593Z,22.82
2023-05-13T04:27:55.552Z,22.83
2023-05-13T04:28:55.576Z,22.83
2023-05-13T04:29:55.583Z,22.82
2023-05-13T04:30:55.597Z,22.82
2023-05-13T04:31:55.665Z,22.82
2023-05-13T04:32:55.686Z,22.82
2023-05-13T04:33:55.654Z,22.82
2023-05-13T04:34:55.651Z,22.82
2023-05-13T04:35:55.648Z,22.82
2023-05-13T04:36:55.636Z,22.83
2023-05-13T04:37:55.639Z,22.83
2023-05-13T04:38:55.664Z,22.82
2023-05-13T04:39:55.634Z,22.82
2023-05-13T04:40:55.645Z,22.82
2023-05-13T04:41:55.638Z,22.82
2023-05-13T04:42:55.657Z,22.82
2023-05-13T04:43:55.640Z,22.82
2023-05-13T04:44:55.643Z,22.82
2023-05-13T04:45:55.712Z,22.82
2023-05-13T04:46:55.644Z,22.82
2023-05-13T04:47:58.361Z,22.83
2023-05-13T04:48:55.637Z,22.81
2023-05-13T04:49:55.615Z,22.82
2023-05-13T04:50:55.616Z,22.81
2023-05-13T04:51:55.612Z,22.81
2023-05-13T04:52:55.617Z,22.82
2023-05-13T04:53:55.615Z,22.82
2023-05-13T04:54:55.610Z,22.81
2023-05-13T04:55:55.611Z,22.82
2023-05-13T04:56:55.618Z,22.82
2023-05-13T04:57:55.622Z,22.81
2023-05-13T04:58:55.634Z,22.81
2023-05-13T04:59:55.600Z,22.82
2023-05-13T05:00:55.605Z,22.81
2023-05-13T05:01:55.618Z,22.82
2023-05-13T05:02:55.646Z,22.81
2023-05-13T05:03:55.595Z,22.82
2023-05-13T05:04:55.588Z,22.82
2023-05-13T05:05:55.594Z,22.81
2023-05-13T05:06:55.583Z,22.81
2023-05-13T05:07:55.571Z,22.82
2023-05-13T05:08:55.565Z,22.81
2023-05-13T05:09:55.557Z,22.81
2023-05-13T05:10:55.555Z,22.81
2023-05-13T05:11:55.553Z,22.81
2023-05-13T05:12:55.576Z,22.81
2023-05-13T05:13:55.537Z,22.81
2023-05-13T05:14:55.550Z,22.82
2023-05-13T05:15:55.525Z,22.81
2023-05-13T05:16:55.537Z,22.80
2023-05-13T05:17:55.585Z,22.80
2023-05-13T05:18:55.639Z,22.80
2023-05-13T05:19:55.482Z,22.80
2023-05-13T05:20:55.476Z,22.79
2023-05-13T05:21:55.485Z,22.80
2023-05-13T05:22:55.452Z,22.79
2023-05-13T05:23:55.448Z,22.79
2023-05-13T05:24:55.443Z,22.79
2023-05-13T05:26:07.895Z,22.78
2023-05-13T05:26:55.428Z,22.77
2023-05-13T05:27:55.410Z,22.78
2023-05-13T05:28:55.415Z,22.77
2023-05-13T05:29:55.411Z,22.77
2023-05-13T05:30:55.422Z,22.76
2023-05-13T05:31:55.560Z,22.76
2023-05-13T05:32:55.444Z,22.77
2023-05-13T05:33:55.399Z,22.76
2023-05-13T05:34:55.393Z,22.76
2023-05-13T05:35:55.387Z,22.76
2023-05-13T05:36:55.395Z,22.76
2023-05-13T05:37:55.386Z,22.76
2023-05-13T05:38:55.401Z,22.74
2023-05-13T05:39:55.416Z,22.75
2023-05-13T05:40:55.399Z,22.75
2023-05-13T05:41:55.380Z,22.74
2023-05-13T05:42:55.383Z,22.74
2023-05-13T05:43:55.383Z,22.74
2023-05-13T05:44:56.118Z,22.73
2023-05-13T05:45:55.440Z,22.73
2023-05-13T05:46:55.445Z,22.72
2023-05-13T05:47:55.429Z,22.72
2023-05-13T05:48:55.355Z,22.73
2023-05-13T05:49:55.351Z,22.72
2023-05-13T05:50:55.359Z,22.72
2023-05-13T05:51:55.351Z,22.72
2023-05-13T05:52:55.342Z,22.72
2023-05-13T05:53:55.350Z,22.72
2023-05-13T05:54:55.340Z,22.72
2023-05-13T05:55:55.358Z,22.71
2023-05-13T05:56:55.343Z,22.71
2023-05-13T05:57:55.335Z,22.70
2023-05-13T05:58:55.335Z,22.70
2023-05-13T05:59:55.334Z,22.70
2023-05-13T06:00:55.331Z,22.71
2023-05-13T06:01:55.347Z,22.69
2023-05-13T06:02:55.453Z,22.70
2023-05-13T06:03:55.483Z,22.70
2023-05-13T06:04:55.374Z,22.69
2023-05-13T06:05:55.424Z,22.70
2023-05-13T06:06:55.512Z,22.69
2023-05-13T06:07:55.476Z,22.68
2023-05-13T06:08:55.523Z,22.68
2023-05-13T06:09:55.512Z,22.69
2023-05-13T06:10:55.537Z,22.68
2023-05-13T06:11:55.546Z,22.68
2023-05-13T06:12:55.590Z,22.68
2023-05-13T06:13:55.621Z,22.68
2023-05-13T06:14:55.660Z,22.68
2023-05-13T06:15:55.781Z,22.68
2023-05-13T06:16:56.106Z,22.67
2023-05-13T06:17:55.748Z,22.67
2023-05-13T06:18:55.800Z,22.67
2023-05-13T06:19:55.764Z,22.67
2023-05-13T06:20:55.782Z,22.67
2023-05-13T06:21:55.810Z,22.67
2023-05-13T06:22:55.824Z,22.67
2023-05-13T06:23:55.834Z,22.67
2023-05-13T06:24:55.854Z,22.67
2023-05-13T06:25:55.881Z,22.66
2023-05-13T06:26:55.892Z,22.66
2023-05-13T06:27:55.916Z,22.67
2023-05-13T06:28:55.948Z,22.67
2023-05-13T06:29:55.952Z,22.67
2023-05-13T06:30:56.014Z,22.67
2023-05-13T06:31:55.994Z,22.67
2023-05-13T06:33:01.510Z,22.67
2023-05-13T06:33:56.020Z,22.67
2023-05-13T06:34:56.168Z,22.66
2023-05-13T06:35:56.005Z,22.67
2023-05-13T06:36:56.011Z,22.67
2023-05-13T06:37:56.006Z,22.67
2023-05-13T06:38:55.998Z,22.66
2023-05-13T06:39:55.992Z,22.67
2023-05-13T06:40:55.981Z,22.67
2023-05-13T06:41:55.977Z,22.66
2023-05-13T06:42:55.970Z,22.66
2023-05-13T06:43:55.973Z,22.66
2023-05-13T06:44:55.963Z,22.66
2023-05-13T06:45:55.950Z,22.66
2023-05-13T06:46:56.002Z,22.67
2023-05-13T06:47:55.972Z,22.66
2023-05-13T06:48:55.953Z,22.67
2023-05-13T06:49:55.921Z,22.66
2023-05-13T06:50:55.943Z,22.66
2023-05-13T06:51:55.900Z,22.67
2023-05-13T06:52:55.902Z,22.66
2023-05-13T06:53:55.925Z,22.67
2023-05-13T06:54:55.891Z,22.66
2023-05-13T06:55:55.881Z,22.66
2023-05-13T06:56:55.875Z,22.66
2023-05-13T06:57:56.634Z,22.66
2023-05-13T06:58:55.931Z,22.67
2023-05-13T06:59:55.856Z,22.66
2023-05-13T07:00:55.859Z,22.66
2023-05-13T07:01:55.844Z,22.66
2023-05-13T07:02:55.921Z,22.66
2023-05-13T07:03:55.976Z,22.66
2023-05-13T07:04:55.826Z,22.66
2023-05-13T07:05:55.835Z,22.66
2023-05-13T07:06:55.848Z,22.66
2023-05-13T07:07:55.811Z,22.66
2023-05-13T07:08:55.811Z,22.66
2023-05-13T07:09:55.818Z,22.66
2023-05-13T07:10:55.798Z,22.65
2023-05-13T07:11:55.804Z,22.65
2023-05-13T07:12:55.806Z,22.65
2023-05-13T07:13:55.784Z,22.65
2023-05-13T07:14:55.780Z,22.65
2023-05-13T07:15:55.776Z,22.65
2023-05-13T07:16:55.788Z,22.65
2023-05-13T07:17:55.779Z,22.66
2023-05-13T07:18:55.851Z,22.66
2023-05-13T07:19:55.749Z,22.66
2023-05-13T07:20:55.760Z,22.66
2023-05-13T07:21:55.746Z,22.66
2023-05-13T07:22:55.812Z,22.66
2023-05-13T07:23:55.734Z,22.66
2023-05-13T07:24:55.732Z,22.66
2023-05-13T07:25:55.729Z,22.66
2023-05-13T07:26:55.736Z,22.66
2023-05-13T07:27:55.774Z,22.67
2023-05-13T07:28:55.769Z,22.66
2023-05-13T07:29:55.783Z,22.66
2023-05-13T07:30:55.847Z,22.66
2023-05-13T07:31:55.858Z,22.67
2023-05-13T07:32:55.888Z,22.66
2023-05-13T07:33:55.873Z,22.67
2023-05-13T07:34:55.891Z,22.66
2023-05-13T07:35:55.918Z,22.66
2023-05-13T07:36:55.928Z,22.67
2023-05-13T07:37:55.945Z,22.66
2023-05-13T07:38:56.040Z,22.66
2023-05-13T07:39:55.975Z,22.66
2023-05-13T07:40:56.004Z,22.67
2023-05-13T07:41:56.023Z,22.66
2023-05-13T07:42:56.036Z,22.66
2023-05-13T07:43:56.047Z,22.67
2023-05-13T07:44:56.102Z,22.67
2023-05-13T07:45:56.077Z,22.66
2023-05-13T07:46:56.231Z,22.67
2023-05-13T07:47:56.211Z,22.66
2023-05-13T07:48:56.157Z,22.67
2023-05-13T07:49:56.271Z,22.66
2023-05-13T07:50:56.245Z,22.67
2023-05-13T07:51:56.300Z,22.67
2023-05-13T07:52:56.377Z,22.67
2023-05-13T07:53:56.460Z,22.67
2023-05-13T07:54:56.560Z,22.67
2023-05-13T07:55:56.600Z,22.67
2023-05-13T07:56:56.640Z,22.67
2023-05-13T07:57:56.657Z,22.67
2023-05-13T07:58:56.670Z,22.67
2023-05-13T07:59:56.685Z,22.66
2023-05-13T08:00:56.691Z,22.66
2023-05-13T08:01:56.708Z,22.66
2023-05-13T08:02:56.769Z,22.66
2023-05-13T08:03:57.025Z,22.67
2023-05-13T08:04:56.773Z,22.67
2023-05-13T08:05:56.750Z,22.67
2023-05-13T08:06:56.771Z,22.67
2023-05-13T08:07:56.771Z,22.66
2023-05-13T08:08:56.777Z,22.67
2023-05-13T08:09:56.796Z,22.67
2023-05-13T08:10:56.821Z,22.67
2023-05-13T08:11:56.812Z,22.68
2023-05-13T08:12:56.827Z,22.67
2023-05-13T08:13:56.843Z,22.67
2023-05-13T08:14:56.859Z,22.66
2023-05-13T08:15:56.941Z,22.67
2023-05-13T08:16:56.905Z,22.67
2023-05-13T08:17:56.937Z,22.68
2023-05-13T08:18:56.934Z,22.67
2023-05-13T08:19:56.958Z,22.68
2023-05-13T08:20:57.195Z,22.67
2023-05-13T08:21:56.989Z,22.67
2023-05-13T08:22:56.988Z,22.68
2023-05-13T08:23:57.013Z,22.68
2023-05-13T08:24:57.026Z,22.68
2023-05-13T08:25:57.032Z,22.67
2023-05-13T08:26:57.087Z,22.68
2023-05-13T08:27:57.068Z,22.68
2023-05-13T08:28:57.138Z,22.68
2023-05-13T08:29:57.111Z,22.68
2023-05-13T08:30:57.105Z,22.68
2023-05-13T08:31:57.161Z,22.68
2023-05-13T08:32:57.185Z,22.69
2023-05-13T08:33:57.162Z,22.68
2023-05-13T08:34:57.187Z,22.68
2023-05-13T08:35:57.192Z,22.68
2023-05-13T08:36:57.215Z,22.68
2023-05-13T08:37:57.231Z,22.68
2023-05-13T08:38:57.243Z,22.68
2023-05-13T08:39:57.261Z,22.68
2023-05-13T08:40:57.314Z,22.68
2023-05-13T08:41:57.296Z,22.68
2023-05-13T08:42:57.336Z,22.67
2023-05-13T08:43:57.354Z,22.68
2023-05-13T08:44:57.359Z,22.68
2023-05-13T08:45:57.437Z,22.67
2023-05-13T08:46:57.397Z,22.67
2023-05-13T08:47:57.452Z,22.67
2023-05-13T08:48:57.430Z,22.67
2023-05-13T08:49:57.459Z,22.67
2023-05-13T08:50:57.544Z,22.67
2023-05-13T08:51:57.481Z,22.67
2023-05-13T08:52:57.491Z,22.67
2023-05-13T08:53:57.510Z,22.67
2023-05-13T08:54:57.527Z,22.67
2023-05-13T08:55:57.564Z,22.66
2023-05-13T08:56:57.574Z,22.67
2023-05-13T08:57:57.626Z,22.67
2023-05-13T08:58:57.637Z,22.66
2023-05-13T08:59:57.623Z,22.67
2023-05-13T09:00:57.718Z,22.66
2023-05-13T09:01:57.653Z,22.67
2023-05-13T09:02:57.691Z,22.66
2023-05-13T09:03:57.697Z,22.66
2023-05-13T09:04:57.782Z,22.67
2023-05-13T09:05:57.735Z,22.66
2023-05-13T09:06:57.745Z,22.67
2023-05-13T09:07:57.770Z,22.67
2023-05-13T09:08:57.817Z,22.67
2023-05-13T09:09:57.791Z,22.67
2023-05-13T09:10:57.892Z,22.67
2023-05-13T09:11:57.811Z,22.67
2023-05-13T09:12:57.824Z,22.68
2023-05-13T09:13:57.845Z,22.68
2023-05-13T09:14:57.876Z,22.68
2023-05-13T09:15:57.874Z,22.68
2023-05-13T09:16:57.879Z,22.68
2023-05-13T09:17:57.942Z,22.68
2023-05-13T09:18:58.069Z,22.68
2023-05-13T09:19:57.978Z,22.68
2023-05-13T09:20:57.950Z,22.68
2023-05-13T09:21:57.993Z,22.68
2023-05-13T09:22:57.993Z,22.69
2023-05-13T09:23:57.993Z,22.68
2023-05-13T09:24:58.009Z,22.68
2023-05-13T09:25:58.025Z,22.68
2023-05-13T09:26:58.047Z,22.68
2023-05-13T09:27:58.065Z,22.69
2023-05-13T09:28:58.080Z,22.69
2023-05-13T09:29:58.095Z,22.69
2023-05-13T09:30:58.180Z,22.69
2023-05-13T09:31:58.143Z,22.69
2023-05-13T09:32:58.280Z,22.69
2023-05-13T09:33:58.152Z,22.70
2023-05-13T09:34:58.169Z,22.69
2023-05-13T09:35:58.180Z,22.69
2023-05-13T09:36:58.200Z,22.70
2023-05-13T09:37:58.213Z,22.71
2023-05-13T09:38:58.225Z,22.70
2023-05-13T09:39:58.239Z,22.70
2023-05-13T09:40:58.252Z,22.71
2023-05-13T09:41:58.276Z,22.71
2023-05-13T09:42:58.276Z,22.71
2023-05-13T09:43:58.278Z,22.70
2023-05-13T09:44:58.299Z,22.72
2023-05-13T09:45:58.302Z,22.71
2023-05-13T09:46:58.368Z,22.72
2023-05-13T09:47:58.397Z,22.72
2023-05-13T09:48:58.343Z,22.72
2023-05-13T09:49:58.355Z,22.73
2023-05-13T09:50:58.500Z,22.73
2023-05-13T09:51:58.381Z,22.73
2023-05-13T09:52:58.405Z,22.73
2023-05-13T09:53:58.387Z,22.73
2023-05-13T09:54:58.398Z,22.73
2023-05-13T09:55:58.409Z,22.74
2023-05-13T09:56:58.414Z,22.74
2023-05-13T09:57:58.422Z,22.74
2023-05-13T09:58:58.438Z,22.75
2023-05-13T09:59:58.414Z,22.75
2023-05-13T10:00:58.531Z,22.75
2023-05-13T10:01:58.426Z,22.75
2023-05-13T10:02:58.466Z,22.75
2023-05-13T10:03:58.468Z,22.76
2023-05-13T10:04:58.440Z,22.76
2023-05-13T10:05:59.847Z,22.75
2023-05-13T10:06:58.423Z,22.76
2023-05-13T10:07:58.415Z,22.76
2023-05-13T10:08:58.417Z,22.76
2023-05-13T10:09:58.403Z,22.76
2023-05-13T10:10:58.416Z,22.76
2023-05-13T10:11:58.389Z,22.78
2023-05-13T10:12:58.385Z,22.78
2023-05-13T10:13:58.385Z,22.78
2023-05-13T10:14:58.407Z,22.78
2023-05-13T10:15:58.364Z,22.80
2023-05-13T10:16:58.501Z,22.79
2023-05-13T10:17:58.437Z,22.80
2023-05-13T10:18:58.439Z,22.80
2023-05-13T10:19:58.327Z,22.81
2023-05-13T10:20:58.323Z,22.80
2023-05-13T10:21:58.309Z,22.81
2023-05-13T10:22:58.298Z,22.81
2023-05-13T10:23:58.290Z,22.81
2023-05-13T10:24:58.273Z,22.80
2023-05-13T10:25:58.272Z,22.81
2023-05-13T10:26:58.261Z,22.82
2023-05-13T10:27:58.254Z,22.81
2023-05-13T10:28:58.248Z,22.82
2023-05-13T10:29:58.242Z,22.82
2023-05-13T10:30:58.234Z,22.83
2023-05-13T10:31:58.259Z,22.82
2023-05-13T10:32:58.317Z,22.83
2023-05-13T10:33:58.212Z,22.83
2023-05-13T10:34:58.229Z,22.84
2023-05-13T10:35:58.198Z,22.84
2023-05-13T10:36:58.174Z,22.84
2023-05-13T10:37:58.166Z,22.84
2023-05-13T10:38:58.160Z,22.84
2023-05-13T10:39:58.154Z,22.85
2023-05-13T10:40:58.132Z,22.85
2023-05-13T10:41:58.118Z,22.85
2023-05-13T10:42:58.109Z,22.85
2023-05-13T10:43:58.108Z,22.85
2023-05-13T10:44:58.094Z,22.85
2023-05-13T10:45:58.095Z,22.85
2023-05-13T10:46:58.067Z,22.86
2023-05-13T10:47:58.263Z,22.86
2023-05-13T10:48:58.044Z,22.86
2023-05-13T10:49:58.031Z,22.86
2023-05-13T10:50:58.089Z,22.87
2023-05-13T10:51:58.010Z,22.86
2023-05-13T10:52:57.996Z,22.87
2023-05-13T10:53:57.971Z,22.87
2023-05-13T10:54:57.965Z,22.87
2023-05-13T10:55:57.953Z,22.87
2023-05-13T10:56:57.954Z,22.88
2023-05-13T10:57:57.945Z,22.88
2023-05-13T10:58:57.921Z,22.89
2023-05-13T10:59:57.917Z,22.89
2023-05-13T11:00:57.909Z,22.90
2023-05-13T11:01:57.951Z,22.90
2023-05-13T11:02:57.948Z,22.89
2023-05-13T11:03:58.034Z,22.90
2023-05-13T11:04:57.860Z,22.90
2023-05-13T11:05:57.843Z,22.90
2023-05-13T11:06:57.857Z,22.91
2023-05-13T11:07:57.824Z,22.90
2023-05-13T11:08:57.801Z,22.91
2023-05-13T11:09:57.793Z,22.90
2023-05-13T11:10:57.783Z,22.91
2023-05-13T11:11:57.770Z,22.90
2023-05-13T11:12:57.750Z,22.91
2023-05-13T11:13:57.785Z,22.91
2023-05-13T11:14:57.763Z,22.92
2023-05-13T11:15:57.830Z,22.92
2023-05-13T11:16:57.810Z,22.92
2023-05-13T11:17:57.957Z,22.92
2023-05-13T11:18:57.986Z,22.92
2023-05-13T11:19:57.939Z,22.92
2023-05-13T11:20:57.984Z,22.93
2023-05-13T11:21:58.054Z,22.92
2023-05-13T11:22:58.203Z,22.92
2023-05-13T11:23:58.152Z,22.92
2023-05-13T11:24:58.172Z,22.93
2023-05-13T11:25:58.210Z,22.93
2023-05-13T11:26:58.250Z,22.93
2023-05-13T11:27:58.261Z,22.93
2023-05-13T11:28:58.269Z,22.93
2023-05-13T11:29:58.276Z,22.93
2023-05-13T11:30:58.334Z,22.93
2023-05-13T11:32:00.225Z,22.93
2023-05-13T11:32:58.522Z,22.94
2023-05-13T11:33:58.349Z,22.94
2023-05-13T11:34:58.349Z,22.94
2023-05-13T11:35:58.337Z,22.94
2023-05-13T11:36:58.323Z,22.94
2023-05-13T11:38:00.018Z,22.95
2023-05-13T11:38:58.391Z,22.95
2023-05-13T11:39:58.292Z,22.96
2023-05-13T11:40:58.286Z,22.95
2023-05-13T11:41:58.367Z,22.96
2023-05-13T11:42:58.258Z,22.95
2023-05-13T11:43:58.248Z,22.95
2023-05-13T11:44:58.233Z,22.95
2023-05-13T11:45:58.290Z,22.96
2023-05-13T11:46:58.210Z,22.96
2023-05-13T11:47:58.313Z,22.96
2023-05-13T11:48:58.179Z,22.97
2023-05-13T11:49:58.164Z,22.97
2023-05-13T11:50:58.149Z,22.98
2023-05-13T11:51:58.133Z,22.98
2023-05-13T11:52:58.124Z,22.99
2023-05-13T11:53:58.108Z,22.99
2023-05-13T11:54:58.114Z,22.99
2023-05-13T11:55:58.081Z,23.00
2023-05-13T11:56:58.074Z,22.99
2023-05-13T11:57:58.060Z,22.99
2023-05-13T11:58:58.070Z,22.99
2023-05-13T11:59:58.057Z,23.00
2023-05-13T12:00:58.016Z,23.00
2023-05-13T12:01:58.092Z,23.00
2023-05-13T12:02:58.124Z,23.00
2023-05-13T12:03:57.988Z,23.00
2023-05-13T12:04:57.998Z,23.00
2023-05-13T12:05:57.958Z,23.00
2023-05-13T12:06:57.966Z,23.00
2023-05-13T12:07:57.999Z,23.00
2023-05-13T12:08:57.958Z,23.00
2023-05-13T12:09:58.004Z,23.00
2023-05-13T12:10:58.069Z,23.00
2023-05-13T12:11:58.054Z,23.00
2023-05-13T12:12:58.098Z,23.00
2023-05-13T12:13:58.125Z,23.00
2023-05-13T12:14:58.132Z,23.00
2023-05-13T12:15:58.190Z,23.00
2023-05-13T12:16:58.209Z,23.00
2023-05-13T12:17:58.422Z,23.00
2023-05-13T12:18:58.424Z,23.00
2023-05-13T12:19:58.387Z,22.99
2023-05-13T12:20:58.438Z,23.00
2023-05-13T12:21:58.490Z,23.00
2023-05-13T12:22:58.519Z,23.00
2023-05-13T12:23:58.562Z,23.00
2023-05-13T12:24:58.600Z,23.00
2023-05-13T12:25:58.674Z,23.00
2023-05-13T12:26:58.744Z,23.00
2023-05-13T12:27:58.787Z,23.01
2023-05-13T12:28:58.836Z,23.00
2023-05-13T12:29:58.877Z,23.00
2023-05-13T12:30:58.985Z,23.00
2023-05-13T12:31:59.127Z,23.00
2023-05-13T12:32:59.082Z,23.00
2023-05-13T12:33:59.062Z,23.00
2023-05-13T12:34:59.104Z,22.99
2023-05-13T12:35:59.133Z,23.00
2023-05-13T12:36:59.218Z,23.00
2023-05-13T12:37:59.237Z,23.00
2023-05-13T12:39:00.664Z,23.01
2023-05-13T12:39:59.353Z,23.01
2023-05-13T12:40:59.405Z,23.01
2023-05-13T12:41:59.459Z,23.01
2023-05-13T12:42:59.546Z,23.01
2023-05-13T12:43:59.613Z,23.00
2023-05-13T12:44:59.644Z,23.01
2023-05-13T12:45:59.763Z,23.01
2023-05-13T12:46:59.782Z,23.01
2023-05-13T12:47:59.862Z,23.01
2023-05-13T12:48:59.894Z,23.01
2023-05-13T12:49:59.961Z,23.01
2023-05-13T12:51:02.150Z,23.01
2023-05-13T12:51:59.992Z,23.02
2023-05-13T12:52:59.996Z,23.01